»·PEaware :: SWA739 KLAS-KLAX

SWA739 :: KLAS-KLAX

FLIGHT INFORMATION

Flight Status: Arrived
Operator:
Southwest Airlines
More flights by this operator :: More flights under this callsign
Pilot: Diego M. (28112)
Aircraft: BOEING 737-700
(B737)
More flights by this aircraft type
Origin: KLAS McCarran Intl
United States
Destination: KLAX Los Angeles Intl
United States
More flights between these airports :: More routes between these airports
Route: +BOACH8 RIKII SHTNR ANJLL4
File this flight plan on PilotEdge
Remarks:
Altitude:
(Current/Filed)
280ft
Speed:
(Current/Filed)
420kts
Departed: 23-Jun-20 12:52 PM
Arrived: 23-Jun-20 01:35 PM
Distance/Time
Traveled:
205nm/0:43
Distance/Time
To Go:
Arrived

Flight Plot

Page will automatically refresh every two minutes.

Flight plan parsing failed; only flown route is shown


Map Options




Map Legend


Flown Route
Filed Route
Departure Airport
Arrival Airport
Navaid (VOR, NDB)
Fix

Horizontal Profiles

Position Reports

Time Latitude Longitude Heading Altitude Ground
Speed
23-Jun-20 12:03 36.081267 -115.146103 270 2097ft 0kts
23-Jun-20 12:03 36.081267 -115.146103 270 2097ft 0kts
23-Jun-20 12:04 36.081267 -115.146103 270 2097ft 0kts
23-Jun-20 12:06 36.081267 -115.146103 270 2097ft 0kts
23-Jun-20 12:06 36.081267 -115.146103 270 2097ft 0kts
23-Jun-20 12:07 36.081267 -115.146103 270 2097ft 0kts
23-Jun-20 12:08 36.081267 -115.146103 270 2097ft 0kts
23-Jun-20 12:09 36.081267 -115.146103 270 2097ft 0kts
23-Jun-20 12:10 36.081267 -115.146103 270 2097ft 0kts
23-Jun-20 12:11 36.081267 -115.146103 270 2097ft 0kts
23-Jun-20 12:12 36.081267 -115.146103 270 2097ft 0kts
23-Jun-20 12:13 36.081267 -115.146103 270 2097ft 0kts
23-Jun-20 12:14 36.081267 -115.146103 270 2097ft 0kts
23-Jun-20 12:15 36.081267 -115.146103 270 2097ft 0kts
23-Jun-20 12:16 36.081267 -115.146103 270 2097ft 0kts
23-Jun-20 12:17 36.081267 -115.146103 270 2097ft 0kts
23-Jun-20 12:18 36.081267 -115.146103 270 2097ft 0kts
23-Jun-20 12:19 36.081267 -115.146103 270 2097ft 0kts
23-Jun-20 12:20 36.081267 -115.146103 270 2097ft 0kts
23-Jun-20 12:21 36.081267 -115.146103 270 2097ft 0kts
23-Jun-20 12:22 36.081267 -115.146103 270 2097ft 0kts
23-Jun-20 12:23 36.081267 -115.146103 270 2097ft 0kts
23-Jun-20 12:24 36.081267 -115.146103 270 2097ft 0kts
23-Jun-20 12:25 36.081267 -115.146103 270 2097ft 0kts
23-Jun-20 12:26 36.081267 -115.146103 270 2097ft 0kts
23-Jun-20 12:27 36.081267 -115.146103 270 2097ft 0kts
23-Jun-20 12:28 36.081267 -115.146103 270 2097ft 0kts
23-Jun-20 12:29 36.081267 -115.146103 270 2097ft 0kts
23-Jun-20 12:30 36.081267 -115.146103 270 2097ft 0kts
23-Jun-20 12:31 36.081267 -115.146103 270 2097ft 0kts
23-Jun-20 12:32 36.081267 -115.146102 270 2097ft 0kts
23-Jun-20 12:33 36.081267 -115.146102 270 2097ft 0kts
23-Jun-20 12:34 36.081267 -115.146102 270 2097ft 0kts
23-Jun-20 12:35 36.081265 -115.145731 270 2096ft 2kts
23-Jun-20 12:36 36.081672 -115.145398 157 2095ft 0kts
23-Jun-20 12:37 36.081740 -115.145441 153 2095ft 0kts
23-Jun-20 12:38 36.081740 -115.145441 153 2095ft 0kts
23-Jun-20 12:39 36.081740 -115.145441 153 2095ft 0kts
23-Jun-20 12:40 36.081740 -115.145441 153 2095ft 0kts
23-Jun-20 12:41 36.081740 -115.145441 153 2095ft 0kts
23-Jun-20 12:42 36.081740 -115.145441 153 2095ft 0kts
23-Jun-20 12:43 36.078716 -115.144876 196 2096ft 17kts
23-Jun-20 12:44 36.078776 -115.151357 269 2116ft 22kts
23-Jun-20 12:45 36.083195 -115.155869 336 2119ft 24kts
23-Jun-20 12:46 36.089654 -115.156291 22 2105ft 20kts
23-Jun-20 12:47 36.095018 -115.153360 25 2085ft 20kts
23-Jun-20 12:48 36.097968 -115.152400 294 2080ft 0kts
23-Jun-20 12:49 36.097968 -115.152400 294 2080ft 0kts
23-Jun-20 12:50 36.097968 -115.152400 294 2080ft 0kts
23-Jun-20 12:51 36.094709 -115.155757 204 2092ft 85kts
23-Jun-20 12:52 36.053017 -115.179883 204 4007ft 197kts
23-Jun-20 12:53 36.002641 -115.233157 237 6025ft 275kts
23-Jun-20 12:54 35.947835 -115.304334 192 9132ft 303kts
23-Jun-20 12:55 35.859627 -115.314135 178 12113ft 337kts
23-Jun-20 12:56 35.765777 -115.304665 173 15514ft 347kts
23-Jun-20 12:57 35.668538 -115.295030 179 18649ft 359kts
23-Jun-20 12:58 35.567924 -115.299063 180 19028ft 361kts
23-Jun-20 12:59 35.471082 -115.328609 205 20443ft 371kts
23-Jun-20 13:00 35.380736 -115.392531 209 22994ft 385kts
23-Jun-20 13:01 35.289392 -115.458871 209 23026ft 381kts
23-Jun-20 13:02 35.198097 -115.524956 209 23310ft 389kts
23-Jun-20 13:03 35.108976 -115.598853 223 26020ft 395kts
23-Jun-20 13:04 35.047474 -115.676611 225 27860ft 404kts
23-Jun-20 13:05 34.967693 -115.778530 226 28043ft 422kts
23-Jun-20 13:06 34.889834 -115.877636 228 28051ft 418kts
23-Jun-20 13:07 34.810212 -115.978697 228 28055ft 417kts
23-Jun-20 13:08 34.729831 -116.080619 228 28054ft 418kts
23-Jun-20 13:09 34.649620 -116.182736 228 28052ft 418kts
23-Jun-20 13:10 34.572609 -116.280415 228 28047ft 375kts
23-Jun-20 13:11 34.500147 -116.372201 228 28017ft 378kts
23-Jun-20 13:12 34.428519 -116.463482 233 26924ft 366kts
23-Jun-20 13:13 34.379371 -116.567988 243 24893ft 351kts
23-Jun-20 13:14 34.336577 -116.672088 243 24745ft 360kts
23-Jun-20 13:15 34.294084 -116.777557 243 23092ft 342kts
23-Jun-20 13:16 34.253326 -116.878737 242 21495ft 343kts
23-Jun-20 13:17 34.212206 -116.981279 244 19860ft 331kts
23-Jun-20 13:18 34.183104 -117.086740 249 18245ft 346kts
23-Jun-20 13:19 34.154239 -117.192864 249 16775ft 330kts
23-Jun-20 13:20 34.124722 -117.300042 250 15189ft 336kts
23-Jun-20 13:21 34.096080 -117.406264 252 13641ft 333kts
23-Jun-20 13:22 34.068990 -117.510366 247 12143ft 319kts
23-Jun-20 13:23 34.033469 -117.609008 246 11696ft 309kts
23-Jun-20 13:24 34.005297 -117.702506 260 10339ft 295kts
23-Jun-20 13:25 33.995584 -117.798765 263 9012ft 283kts
23-Jun-20 13:26 33.986534 -117.891685 263 7743ft 273kts
23-Jun-20 13:27 33.977748 -117.980983 263 6524ft 264kts
23-Jun-20 13:28 33.969342 -118.065918 263 5261ft 245kts
23-Jun-20 13:29 33.961761 -118.142793 263 3907ft 218kts
23-Jun-20 13:30 33.955093 -118.210533 263 2887ft 193kts
23-Jun-20 13:31 33.948979 -118.269230 263 1988ft 164kts
23-Jun-20 13:32 33.943460 -118.323390 263 1099ft 155kts
23-Jun-20 13:33 33.938605 -118.370387 263 330ft 140kts
23-Jun-20 13:34 33.935788 -118.402119 284 120ft 17kts
23-Jun-20 13:35 33.936202 -118.403573 286 123ft 0kts
23-Jun-20 13:36 33.936272 -118.404116 272 124ft 7kts
23-Jun-20 13:37 33.935973 -118.406995 263 129ft 12kts
23-Jun-20 13:38 33.937797 -118.409113 353 131ft 0kts
23-Jun-20 13:40 33.937797 -118.409113 353 131ft 0kts
23-Jun-20 13:41 33.937883 -118.409125 353 131ft 4kts
23-Jun-20 13:42 33.940029 -118.411791 353 126ft 25kts
23-Jun-20 13:43 33.946124 -118.412696 353 122ft 17kts
23-Jun-20 13:44 33.947515 -118.408901 82 124ft 15kts
23-Jun-20 13:45 33.948085 -118.403331 87 120ft 13kts
23-Jun-20 13:46 33.947482 -118.402124 110 120ft 4kts

Navigation Log

Ident Type
Flight plan parsing failed, navigation log unavailable